JAL312 RJFF-RJTT
Flight info
| Callsign | JAL312 |
|---|---|
| Flight time | 1h 9m |
| Altitude | 41000 |
| Route | YANKS HALKA Y235 FLUTE Y23 BOKJO XAC |
| Aircraft | A359/H-SDE2E3GHIJ3J4J5LM1ORWXY/LB1D1 |
Departure
| Time | 2026-02-18 06:12 |
|---|---|
| Airport | Fukuoka Airport (RJFF) |
Arrival
| Time | 2026-02-18 07:21 |
|---|---|
| Airport | Tokyo Haneda International Airport (RJTT) |
| Time | Latitude | Longitude | Altitude | Speed | Heading |
|---|---|---|---|---|---|
| 2026-02-18 05:47 | 33.59576 | 130.44824 | 34 ft | 0 kts | 61° |
| 2026-02-18 06:01 | 33.59568 | 130.44807 | 34 ft | 2 kts | 61° |
| 2026-02-18 06:01 | 33.59562 | 130.44795 | 34 ft | 2 kts | 62° |
| 2026-02-18 06:01 | 33.59556 | 130.44777 | 33 ft | 2 kts | 94° |
| 2026-02-18 06:01 | 33.59560 | 130.44758 | 32 ft | 2 kts | 115° |
| 2026-02-18 06:02 | 33.59571 | 130.44735 | 31 ft | 2 kts | 128° |
| 2026-02-18 06:02 | 33.59582 | 130.44721 | 32 ft | 2 kts | 139° |
| 2026-02-18 06:02 | 33.59586 | 130.44717 | 30 ft | 1 kts | 143° |
| 2026-02-18 06:03 | 33.59587 | 130.44717 | 30 ft | 0 kts | 144° |
| 2026-02-18 06:04 | 33.59585 | 130.44718 | 30 ft | 2 kts | 144° |
| 2026-02-18 06:05 | 33.59550 | 130.44743 | 32 ft | 10 kts | 149° |
| 2026-02-18 06:05 | 33.59472 | 130.44794 | 34 ft | 15 kts | 151° |
| 2026-02-18 06:05 | 33.59369 | 130.44850 | 35 ft | 18 kts | 169° |
| 2026-02-18 06:05 | 33.59239 | 130.44860 | 35 ft | 20 kts | 162° |
| 2026-02-18 06:06 | 33.59112 | 130.44940 | 36 ft | 22 kts | 151° |
| 2026-02-18 06:06 | 33.59077 | 130.44964 | 36 ft | 4 kts | 149° |
| 2026-02-18 06:06 | 33.59040 | 130.44990 | 37 ft | 8 kts | 149° |
| 2026-02-18 06:07 | 33.58874 | 130.45104 | 38 ft | 17 kts | 150° |
| 2026-02-18 06:07 | 33.58762 | 130.45181 | 39 ft | 20 kts | 150° |
| 2026-02-18 06:07 | 33.58646 | 130.45259 | 40 ft | 18 kts | 150° |
| 2026-02-18 06:07 | 33.58527 | 130.45340 | 41 ft | 21 kts | 150° |
| 2026-02-18 06:08 | 33.58391 | 130.45433 | 42 ft | 23 kts | 150° |
| 2026-02-18 06:08 | 33.58290 | 130.45503 | 43 ft | 16 kts | 150° |
| 2026-02-18 06:08 | 33.58185 | 130.45575 | 44 ft | 19 kts | 150° |
| 2026-02-18 06:08 | 33.58062 | 130.45659 | 44 ft | 22 kts | 150° |
| 2026-02-18 06:09 | 33.57922 | 130.45754 | 45 ft | 24 kts | 150° |
| 2026-02-18 06:09 | 33.57767 | 130.45859 | 47 ft | 27 kts | 150° |
| 2026-02-18 06:09 | 33.57617 | 130.45950 | 48 ft | 15 kts | 174° |
| 2026-02-18 06:09 | 33.57539 | 130.45880 | 49 ft | 16 kts | 240° |
| 2026-02-18 06:10 | 33.57536 | 130.45792 | 49 ft | 10 kts | 303° |
| 2026-02-18 06:10 | 33.57599 | 130.45742 | 49 ft | 13 kts | 336° |
| 2026-02-18 06:10 | 33.57660 | 130.45704 | 48 ft | 0 kts | 330° |
| 2026-02-18 06:11 | 33.57666 | 130.45700 | 48 ft | 8 kts | 330° |
| 2026-02-18 06:11 | 33.57850 | 130.45573 | 47 ft | 65 kts | 330° |
| 2026-02-18 06:11 | 33.58462 | 130.45157 | 42 ft | 134 kts | 331° |
| 2026-02-18 06:11 | 33.59371 | 130.44553 | 430 ft | 159 kts | 329° |
| 2026-02-18 06:12 | 33.60339 | 130.43864 | 1313 ft | 163 kts | 327° |
| 2026-02-18 06:12 | 33.61364 | 130.43161 | 1841 ft | 181 kts | 328° |
| 2026-02-18 06:12 | 33.62567 | 130.42384 | 2072 ft | 211 kts | 329° |
| 2026-02-18 06:12 | 33.63918 | 130.41501 | 2569 ft | 230 kts | 330° |
| 2026-02-18 06:13 | 33.65507 | 130.41080 | 3360 ft | 245 kts | 0° |
| 2026-02-18 06:13 | 33.67122 | 130.41847 | 4201 ft | 260 kts | 34° |
| 2026-02-18 06:13 | 33.68211 | 130.43612 | 5117 ft | 268 kts | 60° |
| 2026-02-18 06:13 | 33.68904 | 130.45713 | 5968 ft | 275 kts | 70° |
| 2026-02-18 06:14 | 33.69078 | 130.48048 | 6708 ft | 288 kts | 93° |
| 2026-02-18 06:14 | 33.68394 | 130.50336 | 7391 ft | 299 kts | 123° |
| 2026-02-18 06:14 | 33.66899 | 130.52025 | 8087 ft | 301 kts | 149° |
| 2026-02-18 06:15 | 33.63128 | 130.54357 | 9551 ft | 309 kts | 162° |
| 2026-02-18 06:15 | 33.61108 | 130.55342 | 10209 ft | 317 kts | 163° |
| 2026-02-18 06:15 | 33.59005 | 130.56357 | 10564 ft | 335 kts | 162° |
| 2026-02-18 06:15 | 33.56786 | 130.57444 | 10893 ft | 353 kts | 162° |
| 2026-02-18 06:16 | 33.54464 | 130.58594 | 11213 ft | 369 kts | 162° |
| 2026-02-18 06:16 | 33.52045 | 130.59793 | 11565 ft | 382 kts | 162° |
| 2026-02-18 06:16 | 33.49562 | 130.61022 | 12080 ft | 389 kts | 162° |
| 2026-02-18 06:16 | 33.47044 | 130.62277 | 12638 ft | 394 kts | 161° |
| 2026-02-18 06:17 | 33.44583 | 130.63689 | 13158 ft | 403 kts | 152° |
| 2026-02-18 06:17 | 33.42431 | 130.65896 | 13718 ft | 412 kts | 133° |
| 2026-02-18 06:17 | 33.40578 | 130.68546 | 14240 ft | 416 kts | 130° |
| 2026-02-18 06:17 | 33.38761 | 130.71259 | 14764 ft | 419 kts | 129° |
| 2026-02-18 06:18 | 33.36921 | 130.73997 | 15293 ft | 422 kts | 130° |
| 2026-02-18 06:18 | 33.35068 | 130.76727 | 15834 ft | 425 kts | 130° |
| 2026-02-18 06:18 | 33.33221 | 130.79510 | 16359 ft | 428 kts | 127° |
| 2026-02-18 06:19 | 33.31372 | 130.86169 | 17391 ft | 431 kts | 87° |
| 2026-02-18 06:19 | 33.31809 | 130.89684 | 17902 ft | 426 kts | 69° |
| 2026-02-18 06:19 | 33.32747 | 130.93054 | 18388 ft | 428 kts | 66° |
| 2026-02-18 06:19 | 33.33718 | 130.96437 | 18824 ft | 432 kts | 66° |
| 2026-02-18 06:20 | 33.34651 | 130.99871 | 19268 ft | 435 kts | 68° |
| 2026-02-18 06:20 | 33.35547 | 131.03340 | 19714 ft | 438 kts | 68° |
| 2026-02-18 06:20 | 33.36414 | 131.06808 | 20197 ft | 440 kts | 69° |
| 2026-02-18 06:20 | 33.37282 | 131.10333 | 20641 ft | 443 kts | 69° |
| 2026-02-18 06:21 | 33.38145 | 131.13893 | 21085 ft | 446 kts | 70° |
| 2026-02-18 06:21 | 33.38848 | 131.17535 | 21513 ft | 452 kts | 74° |
| 2026-02-18 06:21 | 33.39423 | 131.21247 | 21948 ft | 455 kts | 76° |
| 2026-02-18 06:21 | 33.39972 | 131.24993 | 22343 ft | 458 kts | 76° |
| 2026-02-18 06:22 | 33.40522 | 131.28752 | 22733 ft | 460 kts | 76° |
| 2026-02-18 06:22 | 33.41079 | 131.32534 | 23158 ft | 462 kts | 76° |
| 2026-02-18 06:22 | 33.41641 | 131.36337 | 23568 ft | 465 kts | 76° |
| 2026-02-18 06:23 | 33.42777 | 131.44000 | 24264 ft | 470 kts | 76° |
| 2026-02-18 06:23 | 33.43347 | 131.47859 | 24612 ft | 473 kts | 76° |
| 2026-02-18 06:23 | 33.43921 | 131.51749 | 24973 ft | 475 kts | 76° |
| 2026-02-18 06:23 | 33.44490 | 131.55609 | 25346 ft | 478 kts | 76° |
| 2026-02-18 06:24 | 33.45068 | 131.59540 | 25715 ft | 480 kts | 76° |
| 2026-02-18 06:24 | 33.45648 | 131.63497 | 26085 ft | 483 kts | 76° |
| 2026-02-18 06:24 | 33.46229 | 131.67471 | 26472 ft | 486 kts | 76° |
| 2026-02-18 06:24 | 33.46820 | 131.71490 | 26874 ft | 489 kts | 76° |
| 2026-02-18 06:25 | 33.47571 | 131.75421 | 27259 ft | 489 kts | 71° |
| 2026-02-18 06:25 | 33.48478 | 131.79367 | 27686 ft | 491 kts | 69° |
| 2026-02-18 06:25 | 33.49458 | 131.83300 | 28117 ft | 494 kts | 68° |
| 2026-02-18 06:25 | 33.50477 | 131.87240 | 28552 ft | 497 kts | 68° |
| 2026-02-18 06:26 | 33.51511 | 131.91201 | 28985 ft | 500 kts | 68° |
| 2026-02-18 06:26 | 33.52544 | 131.95192 | 29401 ft | 504 kts | 68° |
| 2026-02-18 06:26 | 33.53574 | 131.99221 | 29822 ft | 507 kts | 69° |
| 2026-02-18 06:27 | 33.55618 | 132.07354 | 30541 ft | 516 kts | 69° |
| 2026-02-18 06:27 | 33.56649 | 132.11493 | 30778 ft | 521 kts | 69° |
| 2026-02-18 06:27 | 33.57692 | 132.15695 | 31033 ft | 527 kts | 69° |
| 2026-02-18 06:27 | 33.58741 | 132.19934 | 31292 ft | 532 kts | 69° |
| 2026-02-18 06:28 | 33.59797 | 132.24202 | 31533 ft | 537 kts | 70° |
| 2026-02-18 06:28 | 33.60853 | 132.28476 | 31771 ft | 541 kts | 70° |
| 2026-02-18 06:28 | 33.61924 | 132.32819 | 32013 ft | 546 kts | 70° |
| 2026-02-18 06:28 | 33.63005 | 132.37211 | 32235 ft | 550 kts | 70° |
| 2026-02-18 06:29 | 33.64093 | 132.41633 | 32458 ft | 554 kts | 70° |
| 2026-02-18 06:29 | 33.65192 | 132.46111 | 32675 ft | 559 kts | 70° |
| 2026-02-18 06:29 | 33.66293 | 132.50600 | 32875 ft | 563 kts | 70° |
| 2026-02-18 06:29 | 33.67398 | 132.55117 | 33106 ft | 566 kts | 70° |
| 2026-02-18 06:30 | 33.68500 | 132.59629 | 33336 ft | 569 kts | 70° |
| 2026-02-18 06:30 | 33.69617 | 132.64215 | 33618 ft | 571 kts | 70° |
| 2026-02-18 06:30 | 33.70735 | 132.68806 | 33931 ft | 573 kts | 71° |
| 2026-02-18 06:31 | 33.72980 | 132.78054 | 34481 ft | 577 kts | 71° |
| 2026-02-18 06:31 | 33.74103 | 132.82690 | 34763 ft | 578 kts | 71° |
| 2026-02-18 06:31 | 33.75207 | 132.87266 | 35047 ft | 578 kts | 71° |
| 2026-02-18 06:31 | 33.76326 | 132.91912 | 35304 ft | 580 kts | 71° |
| 2026-02-18 06:32 | 33.77453 | 132.96596 | 35573 ft | 581 kts | 71° |
| 2026-02-18 06:32 | 33.78576 | 133.01269 | 35828 ft | 583 kts | 71° |
| 2026-02-18 06:32 | 33.79700 | 133.05959 | 36070 ft | 585 kts | 71° |
| 2026-02-18 06:32 | 33.80830 | 133.10669 | 36313 ft | 588 kts | 71° |
| 2026-02-18 06:33 | 33.81960 | 133.15395 | 36573 ft | 589 kts | 71° |
| 2026-02-18 06:33 | 33.83092 | 133.20137 | 36848 ft | 590 kts | 71° |
| 2026-02-18 06:33 | 33.84219 | 133.24879 | 37097 ft | 591 kts | 71° |
| 2026-02-18 06:33 | 33.85336 | 133.29646 | 37319 ft | 593 kts | 72° |
| 2026-02-18 06:34 | 33.86457 | 133.34439 | 37566 ft | 595 kts | 72° |
| 2026-02-18 06:34 | 33.87586 | 133.39236 | 37809 ft | 596 kts | 71° |
| 2026-02-18 06:34 | 33.88712 | 133.43971 | 38072 ft | 596 kts | 71° |
| 2026-02-18 06:35 | 33.91011 | 133.53608 | 38588 ft | 599 kts | 71° |
| 2026-02-18 06:35 | 33.92159 | 133.58448 | 38791 ft | 601 kts | 71° |
| 2026-02-18 06:35 | 33.93302 | 133.63302 | 38956 ft | 603 kts | 72° |
| 2026-02-18 06:35 | 33.94425 | 133.68100 | 39188 ft | 603 kts | 72° |
| 2026-02-18 06:36 | 33.95559 | 133.72966 | 39430 ft | 602 kts | 72° |
| 2026-02-18 06:36 | 33.96693 | 133.77837 | 39652 ft | 602 kts | 72° |
| 2026-02-18 06:36 | 33.97824 | 133.82702 | 39850 ft | 603 kts | 72° |
| 2026-02-18 06:36 | 33.98954 | 133.87578 | 40000 ft | 604 kts | 72° |
| 2026-02-18 06:37 | 34.00085 | 133.92461 | 40150 ft | 604 kts | 72° |
| 2026-02-18 06:37 | 34.01213 | 133.97335 | 40344 ft | 604 kts | 72° |
| 2026-02-18 06:37 | 34.02327 | 134.02150 | 40503 ft | 605 kts | 72° |
| 2026-02-18 06:37 | 34.03457 | 134.07052 | 40669 ft | 605 kts | 72° |
| 2026-02-18 06:38 | 34.04580 | 134.11941 | 40855 ft | 605 kts | 72° |
| 2026-02-18 06:38 | 34.05703 | 134.16837 | 41010 ft | 606 kts | 72° |
| 2026-02-18 06:38 | 34.06828 | 134.21742 | 41032 ft | 605 kts | 72° |
| 2026-02-18 06:39 | 34.10182 | 134.36446 | 41027 ft | 606 kts | 73° |
| 2026-02-18 06:39 | 34.12396 | 134.46202 | 41020 ft | 607 kts | 73° |
| 2026-02-18 06:40 | 34.14469 | 134.56091 | 41022 ft | 608 kts | 76° |
| 2026-02-18 06:40 | 34.16250 | 134.66064 | 41019 ft | 608 kts | 77° |
| 2026-02-18 06:41 | 34.17974 | 134.76081 | 41020 ft | 608 kts | 77° |
| 2026-02-18 06:41 | 34.19721 | 134.86089 | 41028 ft | 608 kts | 77° |
| 2026-02-18 06:42 | 34.21476 | 134.96035 | 41032 ft | 608 kts | 77° |
| 2026-02-18 06:43 | 34.24066 | 135.11054 | 41022 ft | 608 kts | 78° |
| 2026-02-18 06:43 | 34.25754 | 135.21093 | 41022 ft | 608 kts | 78° |
| 2026-02-18 06:44 | 34.27434 | 135.31120 | 41023 ft | 608 kts | 78° |
| 2026-02-18 06:44 | 34.29101 | 135.41101 | 41019 ft | 608 kts | 78° |
| 2026-02-18 06:45 | 34.30772 | 135.51136 | 41019 ft | 608 kts | 78° |
| 2026-02-18 06:45 | 34.32434 | 135.61180 | 41006 ft | 608 kts | 78° |
| 2026-02-18 06:46 | 34.34076 | 135.71155 | 41005 ft | 608 kts | 78° |
| 2026-02-18 06:46 | 34.35718 | 135.81190 | 41001 ft | 608 kts | 79° |
| 2026-02-18 06:47 | 34.38169 | 135.96251 | 40995 ft | 608 kts | 79° |
| 2026-02-18 06:47 | 34.39795 | 136.06310 | 40981 ft | 608 kts | 79° |
| 2026-02-18 06:48 | 34.41409 | 136.16368 | 40986 ft | 610 kts | 79° |
| 2026-02-18 06:48 | 34.43021 | 136.26489 | 40982 ft | 611 kts | 79° |
| 2026-02-18 06:49 | 34.44627 | 136.36627 | 40972 ft | 612 kts | 79° |
| 2026-02-18 06:49 | 34.46219 | 136.46702 | 40971 ft | 613 kts | 79° |
| 2026-02-18 06:50 | 34.47820 | 136.56872 | 40961 ft | 615 kts | 79° |
| 2026-02-18 06:51 | 34.50205 | 136.72150 | 40958 ft | 614 kts | 79° |
| 2026-02-18 06:51 | 34.51516 | 136.80618 | 40960 ft | 614 kts | 79° |
| 2026-02-18 06:52 | 34.53082 | 136.90787 | 40958 ft | 613 kts | 80° |
| 2026-02-18 06:52 | 34.53942 | 137.01026 | 40954 ft | 610 kts | 90° |
| 2026-02-18 06:53 | 34.54121 | 137.11311 | 40953 ft | 609 kts | 92° |
| 2026-02-18 06:53 | 34.54167 | 137.21505 | 40947 ft | 608 kts | 93° |
| 2026-02-18 06:54 | 34.54199 | 137.31772 | 40940 ft | 608 kts | 93° |
| 2026-02-18 06:54 | 34.54245 | 137.42037 | 40933 ft | 609 kts | 93° |
| 2026-02-18 06:55 | 34.54316 | 137.57464 | 40926 ft | 610 kts | 93° |
| 2026-02-18 06:55 | 34.54353 | 137.67763 | 40754 ft | 611 kts | 93° |
| 2026-02-18 06:56 | 34.54367 | 137.72919 | 40398 ft | 610 kts | 93° |
| 2026-02-18 06:56 | 34.54380 | 137.78069 | 39705 ft | 611 kts | 93° |
| 2026-02-18 06:56 | 34.54388 | 137.83246 | 39037 ft | 613 kts | 93° |
| 2026-02-18 06:56 | 34.54395 | 137.88424 | 38316 ft | 614 kts | 94° |
| 2026-02-18 06:57 | 34.54396 | 137.93601 | 37557 ft | 614 kts | 94° |
| 2026-02-18 06:57 | 34.54384 | 137.98787 | 36840 ft | 613 kts | 94° |
| 2026-02-18 06:57 | 34.54364 | 138.03953 | 36128 ft | 612 kts | 94° |
| 2026-02-18 06:57 | 34.54341 | 138.09108 | 35394 ft | 611 kts | 93° |
| 2026-02-18 06:58 | 34.54319 | 138.14198 | 34673 ft | 611 kts | 93° |
| 2026-02-18 06:58 | 34.54299 | 138.19344 | 33933 ft | 609 kts | 92° |
| 2026-02-18 06:58 | 34.54282 | 138.24487 | 33068 ft | 608 kts | 92° |
| 2026-02-18 06:59 | 34.54251 | 138.34638 | 31315 ft | 587 kts | 92° |
| 2026-02-18 06:59 | 34.54540 | 138.39584 | 30228 ft | 590 kts | 81° |
| 2026-02-18 06:59 | 34.55266 | 138.44411 | 29139 ft | 575 kts | 79° |
| 2026-02-18 06:59 | 34.56043 | 138.49160 | 28369 ft | 570 kts | 78° |
| 2026-02-18 07:00 | 34.56825 | 138.53844 | 27711 ft | 562 kts | 78° |
| 2026-02-18 07:00 | 34.57601 | 138.58466 | 27074 ft | 555 kts | 78° |
| 2026-02-18 07:00 | 34.58367 | 138.63038 | 26432 ft | 548 kts | 77° |
| 2026-02-18 07:00 | 34.59123 | 138.67545 | 25792 ft | 542 kts | 77° |
| 2026-02-18 07:01 | 34.59860 | 138.71954 | 25170 ft | 536 kts | 77° |
| 2026-02-18 07:01 | 34.60595 | 138.76361 | 24552 ft | 530 kts | 77° |
| 2026-02-18 07:01 | 34.61320 | 138.80723 | 23928 ft | 524 kts | 77° |
| 2026-02-18 07:01 | 34.62033 | 138.85031 | 23275 ft | 518 kts | 77° |
| 2026-02-18 07:02 | 34.62738 | 138.89280 | 22612 ft | 510 kts | 77° |
| 2026-02-18 07:02 | 34.63433 | 138.93489 | 22003 ft | 502 kts | 77° |
| 2026-02-18 07:02 | 34.64112 | 138.97609 | 21397 ft | 494 kts | 77° |
| 2026-02-18 07:03 | 34.65436 | 139.05672 | 20197 ft | 480 kts | 77° |
| 2026-02-18 07:03 | 34.66082 | 139.09624 | 19591 ft | 475 kts | 77° |
| 2026-02-18 07:03 | 34.66722 | 139.13541 | 18995 ft | 470 kts | 77° |
| 2026-02-18 07:03 | 34.67354 | 139.17419 | 18394 ft | 465 kts | 78° |
| 2026-02-18 07:04 | 34.67977 | 139.21253 | 17736 ft | 461 kts | 78° |
| 2026-02-18 07:04 | 34.68585 | 139.25007 | 17109 ft | 456 kts | 78° |
| 2026-02-18 07:04 | 34.69192 | 139.28755 | 16514 ft | 451 kts | 78° |
| 2026-02-18 07:04 | 34.69793 | 139.32473 | 15908 ft | 446 kts | 78° |
| 2026-02-18 07:05 | 34.70389 | 139.36169 | 15306 ft | 443 kts | 78° |
| 2026-02-18 07:05 | 34.70995 | 139.39813 | 14910 ft | 433 kts | 76° |
| 2026-02-18 07:05 | 34.72010 | 139.43165 | 14779 ft | 413 kts | 61° |
| 2026-02-18 07:05 | 34.73344 | 139.46176 | 14642 ft | 396 kts | 58° |
| 2026-02-18 07:06 | 34.74669 | 139.49040 | 14515 ft | 381 kts | 57° |
| 2026-02-18 07:06 | 34.75946 | 139.51803 | 14364 ft | 369 kts | 58° |
| 2026-02-18 07:06 | 34.77179 | 139.54488 | 14212 ft | 357 kts | 58° |
| 2026-02-18 07:07 | 34.79518 | 139.59607 | 13941 ft | 336 kts | 58° |
| 2026-02-18 07:07 | 34.80638 | 139.62060 | 13791 ft | 326 kts | 58° |
| 2026-02-18 07:07 | 34.81735 | 139.64461 | 13561 ft | 320 kts | 58° |
| 2026-02-18 07:07 | 34.82793 | 139.66781 | 13321 ft | 316 kts | 58° |
| 2026-02-18 07:08 | 34.83906 | 139.69077 | 13029 ft | 312 kts | 50° |
| 2026-02-18 07:08 | 34.85410 | 139.70908 | 12770 ft | 303 kts | 32° |
| 2026-02-18 07:08 | 34.87089 | 139.72460 | 12498 ft | 302 kts | 30° |
| 2026-02-18 07:08 | 34.88781 | 139.73977 | 12226 ft | 301 kts | 30° |
| 2026-02-18 07:09 | 34.90464 | 139.75494 | 11961 ft | 300 kts | 30° |
| 2026-02-18 07:09 | 34.92131 | 139.77007 | 11691 ft | 298 kts | 31° |
| 2026-02-18 07:09 | 34.93787 | 139.78517 | 11430 ft | 296 kts | 31° |
| 2026-02-18 07:09 | 34.95434 | 139.80021 | 11166 ft | 295 kts | 31° |
| 2026-02-18 07:10 | 34.97044 | 139.81495 | 10892 ft | 293 kts | 31° |
| 2026-02-18 07:10 | 34.98669 | 139.82984 | 10627 ft | 291 kts | 31° |
| 2026-02-18 07:10 | 35.00284 | 139.84465 | 10377 ft | 289 kts | 31° |
| 2026-02-18 07:11 | 35.03477 | 139.87393 | 9855 ft | 285 kts | 31° |
| 2026-02-18 07:11 | 35.05062 | 139.88849 | 9577 ft | 284 kts | 31° |
| 2026-02-18 07:11 | 35.06629 | 139.90291 | 9329 ft | 282 kts | 31° |
| 2026-02-18 07:11 | 35.08191 | 139.91724 | 9083 ft | 280 kts | 31° |
| 2026-02-18 07:12 | 35.09750 | 139.93151 | 8823 ft | 278 kts | 31° |
| 2026-02-18 07:12 | 35.11299 | 139.94560 | 8577 ft | 277 kts | 30° |
| 2026-02-18 07:12 | 35.12837 | 139.95947 | 8326 ft | 274 kts | 30° |
| 2026-02-18 07:12 | 35.14372 | 139.97265 | 8076 ft | 270 kts | 25° |
| 2026-02-18 07:13 | 35.16094 | 139.98005 | 7802 ft | 258 kts | 2° |
| 2026-02-18 07:13 | 35.17870 | 139.98166 | 7419 ft | 255 kts | 356° |
| 2026-02-18 07:13 | 35.19642 | 139.98208 | 7063 ft | 255 kts | 355° |
| 2026-02-18 07:13 | 35.21410 | 139.98231 | 6733 ft | 253 kts | 355° |
| 2026-02-18 07:14 | 35.23138 | 139.98182 | 6584 ft | 242 kts | 352° |
| 2026-02-18 07:14 | 35.24253 | 139.98052 | 6507 ft | 235 kts | 348° |
| 2026-02-18 07:14 | 35.25812 | 139.97676 | 6369 ft | 224 kts | 341° |
| 2026-02-18 07:15 | 35.28591 | 139.96496 | 6080 ft | 203 kts | 322° |
| 2026-02-18 07:15 | 35.29720 | 139.95516 | 5957 ft | 195 kts | 323° |
| 2026-02-18 07:15 | 35.30832 | 139.94705 | 5845 ft | 178 kts | 326° |
| 2026-02-18 07:15 | 35.31905 | 139.93954 | 5391 ft | 179 kts | 326° |
| 2026-02-18 07:16 | 35.32997 | 139.93192 | 4939 ft | 182 kts | 326° |
| 2026-02-18 07:16 | 35.34101 | 139.92417 | 4442 ft | 184 kts | 326° |
| 2026-02-18 07:16 | 35.35208 | 139.91630 | 4053 ft | 183 kts | 326° |
| 2026-02-18 07:16 | 35.36325 | 139.90844 | 3902 ft | 185 kts | 327° |
| 2026-02-18 07:17 | 35.37446 | 139.90070 | 3723 ft | 185 kts | 327° |
| 2026-02-18 07:17 | 35.38554 | 139.89285 | 3509 ft | 184 kts | 327° |
| 2026-02-18 07:17 | 35.39665 | 139.88497 | 3269 ft | 184 kts | 327° |
| 2026-02-18 07:17 | 35.40777 | 139.87710 | 3011 ft | 184 kts | 328° |
| 2026-02-18 07:18 | 35.41872 | 139.86934 | 2761 ft | 184 kts | 328° |
| 2026-02-18 07:18 | 35.42979 | 139.86148 | 2493 ft | 184 kts | 328° |
| 2026-02-18 07:18 | 35.44086 | 139.85362 | 2246 ft | 184 kts | 328° |
| 2026-02-18 07:19 | 35.46228 | 139.83842 | 1746 ft | 168 kts | 328° |
| 2026-02-18 07:19 | 35.47226 | 139.83132 | 1508 ft | 163 kts | 328° |
| 2026-02-18 07:19 | 35.48186 | 139.82453 | 1287 ft | 155 kts | 329° |
| 2026-02-18 07:19 | 35.49096 | 139.81810 | 1077 ft | 147 kts | 329° |
| 2026-02-18 07:20 | 35.49974 | 139.81186 | 886 ft | 145 kts | 329° |
| 2026-02-18 07:20 | 35.50838 | 139.80569 | 682 ft | 146 kts | 329° |
| 2026-02-18 07:20 | 35.51715 | 139.79944 | 502 ft | 145 kts | 330° |
| 2026-02-18 07:20 | 35.52590 | 139.79323 | 313 ft | 146 kts | 331° |
| 2026-02-18 07:21 | 35.53463 | 139.78706 | 104 ft | 143 kts | 331° |
| 2026-02-18 07:21 | 35.54311 | 139.78114 | 27 ft | 131 kts | 329° |
| 2026-02-18 07:21 | 35.54881 | 139.77707 | 26 ft | 50 kts | 329° |
| 2026-02-18 07:21 | 35.55058 | 139.77626 | 27 ft | 24 kts | 351° |
| 2026-02-18 07:22 | 35.55107 | 139.77623 | 27 ft | 2 kts | 3° |
| 2026-02-18 07:22 | 35.55158 | 139.77634 | 27 ft | 12 kts | 25° |
| 2026-02-18 07:22 | 35.55177 | 139.77723 | 28 ft | 12 kts | 106° |
| 2026-02-18 07:23 | 35.55021 | 139.77854 | 28 ft | 17 kts | 150° |
| 2026-02-18 07:23 | 35.54911 | 139.77931 | 28 ft | 20 kts | 150° |
| 2026-02-18 07:23 | 35.54663 | 139.78107 | 28 ft | 17 kts | 149° |
| 2026-02-18 07:24 | 35.54592 | 139.78194 | 28 ft | 12 kts | 87° |
| 2026-02-18 07:24 | 35.54620 | 139.78249 | 30 ft | 6 kts | 33° |
| 2026-02-18 07:24 | 35.54662 | 139.78286 | 29 ft | 10 kts | 44° |
| 2026-02-18 07:24 | 35.54702 | 139.78362 | 29 ft | 6 kts | 60° |
| 2026-02-18 07:25 | 35.54721 | 139.78401 | 29 ft | 0 kts | 60° |